• Join FlightAware (Why Join?)
  • Login
  • US Flag 
08:43PM EDT


 

Airport Tracker/Info


-or-


 

Live Flight TrackerFlight Track Log ✈ THU850 ✈ 17-Jul-2013 ✈ CYHM - CYQT

Flight Track Log - Related Links

Times and Time Zones

All times are in EDT time to prevent confusion due to time zone crossing. See the THU850 flight status page for this flight to view local times or setup timezone preferences in your user account.

Time Position Orientation Groundspeed Altitude Reporting Facility
EDT Latitude Longitude Course Direction KTS MPH feet Rate Location/Type
10:51AM 43.1667 -79.9000 216° Southwest 20 23 800  Level Toronto Center
10:52AM 43.1333 -79.9333 216° Southwest 160 184 1,500 900 Climbing Toronto Center
10:53AM 43.1000 -80.0000 236° Southwest 200 230 2,700 1,200 Climbing Toronto Center
10:54AM 43.0833 -80.0667 251° West 210 242 3,900 1,200 Climbing Toronto Center
10:55AM 43.0833 -80.1500 270° West 200 230 5,200 1,200 Climbing Toronto Center
10:56AM 43.1000 -80.2333 285° West 210 242 6,400 1,200 Climbing Toronto Center
10:57AM 43.1167 -80.3000 289° West 210 242 7,700 1,200 Climbing Toronto Center
10:58AM 43.1667 -80.3333 334° Northwest 210 242 8,900 1,200 Climbing Toronto Center
10:59AM 43.2167 -80.3833 324° Northwest 210 242 10,200 1,200 Climbing Toronto Center
11:00AM 43.2667 -80.4333 324° Northwest 220 253 11,300 1,080 Climbing Toronto Center
11:01AM 43.3167 -80.4833 324° Northwest 220 253 12,400 960 Climbing Toronto Center
11:02AM 43.3667 -80.5333 324° Northwest 220 253 13,300 840 Climbing Toronto Center
11:03AM 43.4167 -80.5667 334° Northwest 220 253 14,100 780 Climbing Toronto Center
11:04AM 43.4833 -80.6000 340° North 220 253 14,900 780 Climbing Toronto Center
11:05AM 43.5333 -80.6500 324° Northwest 230 265 15,700 780 Climbing Toronto Center
11:06AM 43.5833 -80.6833 334° Northwest 230 265 16,500 780 Climbing Toronto Center
11:07AM 43.6500 -80.7333 332° Northwest 220 253 17,300 660 Climbing Toronto Center
11:08AM 43.7000 -80.7833 324° Northwest 220 253 17,900 420 Climbing Toronto Center
11:09AM 43.7333 -80.8333 313° West 220 253 18,200 420 Climbing Toronto Center
11:10AM 43.7833 -80.8500 346° North 220 253 18,800 600 Climbing Toronto Center
11:11AM 43.8333 -80.9333 310° West 220 253 19,400 540 Climbing Toronto Center
11:12AM 43.8833 -80.9667 334° Northwest 220 253 19,900 480 Climbing Toronto Center
11:13AM 43.9333 -81.0500 310° West 220 253 20,400 420 Climbing Toronto Center
11:14AM 43.9667 -81.1000 313° West 220 253 20,800 360 Climbing Toronto Center
11:15AM 44.0167 -81.1333 334° Northwest 220 253 21,200 360 Climbing Toronto Center
11:16AM 44.0667 -81.2167 310° West 220 253 21,600 180 Climbing Toronto Center
11:18AM 44.1665 -81.3289 318° Northwest  Level FlightAware Approximate
11:19AM 44.2000 -81.4000 318° Northwest 240 276 22,000  Level Toronto Center
11:20AM 44.2500 -81.4667 316° Northwest 240 276 22,000  Level Toronto Center
11:21AM 44.3000 -81.5500 310° West 250 288 22,000  Level Toronto Center
11:22AM 44.3500 -81.6167 316° Northwest 250 288 22,000 -60 Level Toronto Center
11:23AM 44.4000 -81.6833 316° Northwest 250 288 21,900  Descending Toronto Center
11:24AM 44.4333 -81.7500 305° West 250 288 22,000  Climbing Toronto Center
11:25AM 44.4833 -81.8500 305° West 240 276 22,000  Level Toronto Center
11:26AM 44.5167 -81.9167 305° West 250 288 22,000  Level Toronto Center
11:27AM 44.5500 -82.0000 299° West 250 288 22,000  Level Toronto Center
11:28AM 44.6000 -82.0667 316° Northwest 250 288 22,000  Level Toronto Center
11:29AM 44.6500 -82.1333 317° Northwest 250 288 22,000  Level Toronto Center
11:30AM 44.6833 -82.2167 299° West 250 288 22,000  Level Toronto Center
11:31AM 44.7333 -82.3167 305° West 250 288 22,000  Level Toronto Center
11:32AM 44.7833 -82.3500 335° Northwest 250 288 22,000  Level Toronto Center
11:33AM 44.8333 -82.4500 305° West 260 299 22,000  Level Toronto Center
11:34AM 44.8833 -82.5333 310° West 250 288 22,000  Level Toronto Center
11:35AM 44.9167 -82.6000 305° West 250 288 22,000  Level Toronto Center
11:36AM 44.9667 -82.6667 317° Northwest 250 288 22,000  Level Toronto Center
11:37AM 45.0125 -82.7514 307° West 250 288 22,000  Level Minneapolis Center
11:38AM 45.0678 -82.8428 311° West 253 291 22,000 -60 Level Minneapolis Center
11:39AM 45.1103 -82.9214 307° West 254 292 21,900  Descending Minneapolis Center
11:40AM 45.1333 -82.9833 298° West 250 288 22,000  Climbing Toronto Center
11:41AM 45.1833 -83.0667 310° West 250 288 22,000  Level Toronto Center
11:42AM 45.2333 -83.1333 317° Northwest 250 288 22,000  Level Toronto Center
11:43AM 45.2667 -83.2167 300° West 250 288 22,000  Level Toronto Center
11:44AM 45.3000 -83.2833 305° West 250 288 22,000  Level Toronto Center
11:45AM 45.3500 -83.3500 317° Northwest 250 288 22,000  Level Toronto Center
11:46AM 45.3833 -83.4333 300° West 250 288 22,000  Level Toronto Center
11:47AM 45.4333 -83.5333 305° West 250 288 22,100  Climbing Toronto Center
11:48AM 45.4833 -83.6000 317° Northwest 250 288 22,000 -60 Descending Toronto Center
11:49AM 45.5333 -83.6833 311° West 250 288 22,000  Level Toronto Center
11:49AM 45.5567 -83.7181 314° West 249 287 22,000  Level Minneapolis Center
11:50AM 45.5997 -83.7953 309° West 250 288 22,000  Level Minneapolis Center
11:51AM 45.6433 -83.8700 310° West 249 287 22,000  Level Minneapolis Center
11:52AM 45.6883 -83.9456 310° West 248 285 22,000  Level Minneapolis Center
11:53AM 45.7306 -84.0239 308° West 249 287 22,000  Level Minneapolis Center
11:54AM 45.7789 -84.1169 307° West 248 285 22,000  Level Minneapolis Center
11:55AM 45.8192 -84.1964 306° West 247 284 22,000  Level Minneapolis Center
11:56AM 45.8603 -84.2758 307° West 247 284 22,000  Level Minneapolis Center
11:57AM 45.9011 -84.3519 308° West 246 283 22,000  Level Minneapolis Center
11:58AM 45.9442 -84.4292 309° West 246 283 22,000  Level Minneapolis Center
12:00PM 45.9833 -84.5333 298° West 250 288 22,000  Level Toronto Center
12:01PM 46.0333 -84.6000 317° Northwest 250 288 22,000  Level Toronto Center
12:02PM 46.0667 -84.6833 300° West 240 276 22,000  Level Toronto Center
12:03PM 46.1167 -84.7500 317° Northwest 240 276 22,000  Level Toronto Center
12:04PM 46.1500 -84.8333 300° West 240 276 22,000  Level Toronto Center
12:05PM 46.2000 -84.9167 311° West 240 276 22,000  Level Toronto Center
12:06PM 46.2500 -84.9833 317° Northwest 240 276 22,000  Level Toronto Center
12:07PM 46.2667 -85.0667 286° West 240 276 22,000  Level Toronto Center
12:08PM 46.3167 -85.1333 317° Northwest 230 265 22,000  Level Toronto Center
12:09PM 46.3500 -85.2167 300° West 230 265 22,000 -300 Level Toronto Center
12:10PM 46.4000 -85.2833 317° Northwest 240 276 21,500 -600 Descending Toronto Center
12:11PM 46.4333 -85.3667 300° West 260 299 20,900 -660 Descending Toronto Center
12:12PM 46.4833 -85.4667 306° West 260 299 20,200 -480 Descending Toronto Center
12:13PM 46.5167 -85.5500 300° West 260 299 20,000 -120 Descending Toronto Center
12:14PM 46.5667 -85.6167 318° Northwest 250 288 20,000  Level Toronto Center
12:15PM 46.6000 -85.7000 300° West 240 276 20,000  Level Toronto Center
12:16PM 46.6333 -85.7833 300° West 240 276 20,000  Level Toronto Center
12:17PM 46.6833 -85.8500 318° Northwest 240 276 20,000  Level Toronto Center
12:18PM 46.7333 -85.9333 311° West 240 276 20,000  Level Toronto Center
12:19PM 46.7833 -86.0167 311° West 240 276 20,000  Level Toronto Center
12:20PM 46.8000 -86.0833 290° West 240 276 20,000  Level Toronto Center
12:20PM 46.8339 -86.1353 314° West 244 281 20,000  Level Minneapolis Center
12:21PM 46.8736 -86.2128 307° West 243 280 20,000  Level Minneapolis Center
12:22PM 46.9164 -86.2908 309° West 246 283 20,000  Level Minneapolis Center
12:23PM 46.9581 -86.3692 308° West 246 283 20,000  Level Minneapolis Center
12:24PM 47.0081 -86.4622 308° West 243 280 20,000  Level Minneapolis Center
12:25PM 47.0456 -86.5428 304° West 242 278 20,000  Level Minneapolis Center
12:27PM 47.0833 -86.6667 294° West 240 276 20,000  Level Toronto Center
12:28PM 47.1333 -86.7500 311° West 250 288 20,000  Level Toronto Center
12:29PM 47.2000 -86.8500 314° West 250 288 20,000  Level Winnipeg Center
12:30PM 47.2333 -86.9167 306° West 240 276 20,000  Level Winnipeg Center
12:31PM 47.2667 -87.0000 301° West 250 288 20,000  Level Winnipeg Center
12:32PM 47.3167 -87.1000 306° West 250 288 20,000  Level Winnipeg Center
12:33PM 47.3500 -87.1667 306° West 240 276 20,000  Level Winnipeg Center
12:34PM 47.4000 -87.2500 312° West 240 276 20,000  Level Winnipeg Center
12:35PM 47.4333 -87.3167 306° West 240 276 20,000  Level Winnipeg Center
12:36PM 47.4667 -87.4167 296° West 240 276 20,000 -60 Level Winnipeg Center
12:37PM 47.5000 -87.5000 301° West 240 276 19,900  Descending Winnipeg Center
12:38PM 47.5333 -87.5667 307° West 240 276 20,000  Climbing Winnipeg Center
12:39PM 47.5833 -87.6667 307° West 240 276 20,000  Level Winnipeg Center
12:40PM 47.6000 -87.7333 290° West 240 276 20,000  Level Winnipeg Center
12:41PM 47.6500 -87.8333 307° West 240 276 20,000  Level Winnipeg Center
12:42PM 47.6833 -87.9000 307° West 240 276 20,000  Level Winnipeg Center
12:43PM 47.7167 -87.9833 301° West 240 276 20,100  Climbing Winnipeg Center
12:44PM 47.7667 -88.0500 318° Northwest 240 276 20,000  Descending Winnipeg Center
12:45PM 47.8167 -88.1167 318° Northwest 240 276 20,100 -180 Climbing Winnipeg Center
12:46PM 47.8833 -88.1333 350° North 250 288 19,700 -540 Descending Winnipeg Center
12:47PM 47.9500 -88.0667 34° Northeast 290 334 19,100 -360 Descending Winnipeg Center
12:48PM 47.9500 -87.9167 90° East 330 380 19,000  Descending Winnipeg Center
12:49PM 47.9667 -87.8000 78° East 340 391 19,100  Climbing Winnipeg Center
12:50PM 47.9667 -87.6500 90° East 330 380 19,000 -60 Descending Winnipeg Center
12:51PM 47.9667 -87.5167 90° East 340 391 19,000  Level Winnipeg Center
12:52PM 47.9500 -87.3667 99° East 340 391 19,100  Climbing Winnipeg Center
12:53PM 47.9667 -87.2167 81° East 340 391 19,100 -60 Level Winnipeg Center
12:54PM 47.9667 -87.0833 90° East 350 403 19,000 -120 Descending Winnipeg Center
12:55PM 47.9667 -86.9333 90° East 340 391 18,900  Descending Winnipeg Center
12:56PM 47.9500 -86.7833 99° East 340 391 19,000  Climbing Winnipeg Center
12:57PM 47.9500 -86.6333 90° East 340 391 19,000  Level Winnipeg Center
12:58PM 47.9667 -86.5167 78° East 340 391 19,000  Level Winnipeg Center
12:59PM 47.9667 -86.3667 90° East 350 403 19,000  Level Winnipeg Center
01:00PM 47.9500 -86.2333 101° East 340 391 19,000  Level Winnipeg Center
01:01PM 47.9500 -86.0833 90° East 340 391 19,000 -600 Level Winnipeg Center
01:02PM 47.9500 -85.9333 90° East 350 403 17,800 -1,440 Descending Winnipeg Center
01:03PM 47.9500 -85.7833 90° East 370 426 16,200 -1,620 Descending Winnipeg Center
01:04PM 47.9667 -85.6333 81° East 360 414 14,600 -1,680 Descending Winnipeg Center
01:05PM 47.9500 -85.4833 99° East 350 403 12,900 -1,740 Descending Winnipeg Center
01:06PM 47.9500 -85.3667 90° East 340 391 11,200 -1,380 Descending Winnipeg Center
01:07PM 47.9500 -85.2167 90° East 340 391 10,200 -1,020 Descending Winnipeg Center
01:09PM 47.9645 -85.3363 280° West  Level Estimated
01:16PM 48.0403 -85.9818 280° West  Level Estimated
01:17PM 48.0508 -86.0742 280° West  Level Estimated
01:18PM 48.0613 -86.1666 280° West  Level Estimated
01:19PM 48.0716 -86.2591 280° West  Level Estimated
01:20PM 48.0820 -86.3515 280° West  Level Estimated
01:21PM 48.0922 -86.4441 279° West  Level Estimated
01:22PM 48.1023 -86.5366 279° West  Level Estimated
01:23PM 48.1124 -86.6292 279° West  Level Estimated
01:24PM 48.1225 -86.7218 279° West  Level Estimated
01:25PM 48.1324 -86.8145 279° West  Level Estimated
01:26PM 48.1423 -86.9072 279° West  Level Estimated
01:27PM 48.1520 -86.9999 279° West  Level Estimated
01:28PM 48.1618 -87.0927 279° West  Level Estimated
01:29PM 48.1714 -87.1855 279° West  Level Estimated
01:30PM 48.1810 -87.2784 279° West  Level Estimated
01:31PM 48.1904 -87.3712 279° West  Level Estimated
01:32PM 48.1999 -87.4642 279° West  Level Estimated
01:33PM 48.2092 -87.5571 279° West  Level Estimated
01:34PM 48.2185 -87.6501 279° West  Level Estimated
01:35PM 48.2277 -87.7431 278° West  Level Estimated
01:36PM 48.2368 -87.8361 278° West  Level Estimated
01:37PM 48.2458 -87.9292 278° West  Level Estimated
01:38PM 48.2548 -88.0223 278° West  Level Estimated
01:39PM 48.2637 -88.1155 278° West  Level Estimated
01:40PM 48.2725 -88.2086 278° West  Level Estimated
01:41PM 48.2812 -88.3018 278° West  Level Estimated
01:42PM 48.2899 -88.3951 278° West  Level Estimated
01:43PM 48.2985 -88.4883 278° West  Level Estimated
01:44PM 48.3070 -88.5816 278° West  Level Estimated
01:45PM 48.3154 -88.6750 278° West  Level Estimated
01:46PM 48.3238 -88.7683 278° West  Level Estimated
01:47PM 48.3321 -88.8617 278° West  Level Estimated
01:48PM 48.3403 -88.9551 278° West  Level Estimated